Gig Harbor, WA

9:13 AM PST on February 26, 2017 (GMT -0800)
KP Hwy | | Change Station
Active Advisory: Winter Weather Advisory

Elev 259 ft 47.37 °N, 122.72 °W | Updated 11 minutes ago

Ice Pellets
Ice Pellets
34.3 °F
Feels Like 34 °F
N
0.0
Wind Variable Wind from ENE

Today
High -- | Low -- °F
--% Chance of Precip.
Yesterday
High -- | Low -- °F
Precip. -- in
Pressure 29.71 in
Visibility 1.0 miles
Clouds Mostly Cloudy 500 ft
Overcast 1200 ft
Windchill 34 °F
Dew Point 34 °F
Humidity 99%
Rainfall 0.34 in
Snow Depth Not available.
6:55 AM 5:52 PM
New Moon, 0% visible
METAR KPWT 261655Z AUTO 02004KT 1SM BKN005 OVC012 00/00 A2971 RMK AO1 P0001
Pressure 29.71 in
Visibility 1.0 miles
Clouds Mostly Cloudy 500 ft
Overcast 1200 ft
Windchill 34 °F
Dew Point 34 °F
Humidity 99%
Rainfall 0.34 in
Snow Depth Not available.
6:55 AM 5:52 PM
New Moon, 0% visible
METAR KPWT 261655Z AUTO 02004KT 1SM BKN005 OVC012 00/00 A2971 RMK AO1 P0001

Get Your Daily Forecast Email!

Thanks for signing up!

Be on the lookout for a verification email in your inbox.

You'll start receiving the daily forecast at 8 AM.

×

10-Day Weather Forecast

Almanac

Astronomy

Feb. 26, 2017 Rise Set
Actual Time
Civil Twilight
Nautical Twilight
Astronomical Twilight
Moon
Length of Visible Light
Length of Day
Tomorrow will be .
, % of the Moon is Illuminated

Today's Extremes

State Highs State Lows

Community

WunderPhotos

Upload Photos

1,962,540 photos uploaded!

WunderBlog® & News

Nearby

Air Quality

  Air Quality AQ Index Pollutant
Not available.

Snow Depth

Station Depth Elevation

Earthquake Activity

City Distance Mag. Time & Date
Minimum magnitude displayed is 2.5.

Coastal Water Temperatures

Place Temperature

Stations

Nearby Weather Stations

Station Location Temp. Windchill Dew Point Humidity Wind Precip. Elev Updated Type
                   

Watches & Warnings

Winter Weather Advisory
Issued: 3:00 AM PST Feb. 26, 2017 – National Weather Service

... Winter Weather Advisory remains in effect until 10 am PST this
morning...

* some affected locations... Seattle, Tacoma, Everett, Bremerton,
Bellevue, Olympia, Bellingham, Friday Harbor.

* Snow accumulations... around 1 inch on hills above 300 feet
elevation. Areas below 300 feet will see little or no
accumulation. Higher hills and inland areas may get up to three inches.

* Snow level... 300 feet this morning rising to 1000 feet in the
afternoon.

* Main impact... snow will cause locally slippery roadways and
hazardous driving conditions.


Precautionary/preparedness actions...

A Winter Weather Advisory for snow means that periods of snow
will cause primarily travel difficulties. Be prepared for snow
covered roads and limited visibilities, and use caution while
driving.